Address 0x9aa8e45c0e22b06993c589b550eac6fd0b1095d0 4

Overview

Balance:
8.944069051 GLMR

GLMR Value:
$4.28 (@ $0.48/GLMR)

Token:
Txn Hash Method
Block
From
To
Value [Txn Fee]
0x812cca03d7cd49effd90d9188b861203d9bbc45a2e36573dca07d78eddc4e342Swapout16313202022-08-11 17:46:4251 days 13 hrs ago0x9aa8e45c0e22b06993c589b550eac6fd0b1095d0OUT Multichain: Polygon (Matic) Token0 GLMR0.0033274745
0x89d8c5beacedb188c5eab1f708f7f60c19ead8185672711b9c4daecfafe2dc0aSwap Exact Token...16313152022-08-11 17:45:4251 days 13 hrs ago0x9aa8e45c0e22b06993c589b550eac6fd0b1095d0OUT StellaSwap: Router v2.10 GLMR0.013826127
0xd2fd88937b0b170b75f59fcfec5856ab284e6ae9b76a05e011de1438b51752ccApprove16313122022-08-11 17:45:0651 days 13 hrs ago0x9aa8e45c0e22b06993c589b550eac6fd0b1095d0OUT Multichain: BUSD Token0 GLMR0.0047310165
0x408e607a61013d8e43fb7da4aa2e55227101e85a0c2a4cc21b79e9ce3b0bf097Swap Exact Token...16312992022-08-11 17:42:1851 days 13 hrs ago0x9aa8e45c0e22b06993c589b550eac6fd0b1095d0OUT StellaSwap: Router v2.10 GLMR0.015729252
0x57c2dc6373c7a97eecad8a3204cbe31379c781ad123df7ec7722a64eee7b4445Leave16312862022-08-11 17:39:3051 days 13 hrs ago0x9aa8e45c0e22b06993c589b550eac6fd0b1095d0OUT StellaSwap: xStella Token0 GLMR0.0052649065
0xa6113467d636e6f46243d6e3f8a5c6c5d5b2ca97318b2ae0fa4263da0934cc3aApprove16312832022-08-11 17:38:5451 days 13 hrs ago0x9aa8e45c0e22b06993c589b550eac6fd0b1095d0OUT StellaSwap: xStella Token0 GLMR0.002772574
0x1b1a200a29948d44d0980ba12513ba5662666ca770443b1e83992060c8ec2a47Approve16312832022-08-11 17:38:5451 days 13 hrs ago0x9aa8e45c0e22b06993c589b550eac6fd0b1095d0OUT StellaSwap: xStella Token0 GLMR0.004792424
0xf732319697805b9ee09155aefcf8f57cb25a4b255564282a97d1997318cf3010Swapout16312662022-08-11 17:35:0651 days 13 hrs ago0x9aa8e45c0e22b06993c589b550eac6fd0b1095d0OUT Multichain: Polygon (Matic) Token0 GLMR0.0033274745
0x8c5b52896828114af00b9a99ab2c12d558669ed03b600cec3abb0108c130e2b1Swap Exact ETH F...16312592022-08-11 17:33:4251 days 13 hrs ago0x9aa8e45c0e22b06993c589b550eac6fd0b1095d0OUT StellaSwap: Router v2.1110.832462212164183 GLMR0.0121597
0x7d13f3876e2c080be69dca770d53922d995f66b495ead841c523678e67c24d9cSwap Exact Token...16311462022-08-11 17:10:1251 days 13 hrs ago0x9aa8e45c0e22b06993c589b550eac6fd0b1095d0OUT StellaSwap: Router v2.10 GLMR0.011735024
0xf154e98f1177ea23d270058d7be65139bf31178721a8ce63a7f9afcfa713fb5dApprove16311082022-08-11 17:02:3651 days 14 hrs ago0x9aa8e45c0e22b06993c589b550eac6fd0b1095d0OUT StellaSwap: STELLA Token0 GLMR0.0047969915
0x4e2a49223e144c4f04bd93e3734d45fed1d1f7a7b608d1d2fa46434f45adf1a0Remove Liquidity...16310962022-08-11 17:00:0051 days 14 hrs ago0x9aa8e45c0e22b06993c589b550eac6fd0b1095d0OUT StellaSwap: Router v2.10 GLMR0.0170482445
0x8e738a381c5e454f0931e724516383e13098355e4a439ed1c85362d3bc9a26c0Approve16310922022-08-11 16:59:0651 days 14 hrs ago0x9aa8e45c0e22b06993c589b550eac6fd0b1095d0OUT 0x7f5ac0fc127bcf1eaf54e3cd01b00300a0861a620 GLMR0.004721171
0xa4a17db877e3b04e1203a34c587215b8266dc069311378a9509ef96dd8b0a694Withdraw16310822022-08-11 16:56:5451 days 14 hrs ago0x9aa8e45c0e22b06993c589b550eac6fd0b1095d0OUT StellaSwap: Distributor0 GLMR0.0145131805
0xdccea5fb48130439c0eb46a36f2e09d105f2183ff620cc877b20b4330853eb90Withdraw16310742022-08-11 16:55:1251 days 14 hrs ago0x9aa8e45c0e22b06993c589b550eac6fd0b1095d0OUT 0xf3a5454496e26ac57da879bf3285fa85debf03880 GLMR0.0338718695
0x142b032164ee397519b15311aadcc494968259503cac779d22201d97e59f4522Deposit16309832022-08-11 16:36:1251 days 14 hrs ago0x9aa8e45c0e22b06993c589b550eac6fd0b1095d0OUT 0xf3a5454496e26ac57da879bf3285fa85debf03880 GLMR0.0388165435
0x9dda6f3fbdc8c39dd5465ca617f6646f8f6630720edcbd7ce16dbe4a0249bc91Deposit16309732022-08-11 16:34:1251 days 14 hrs ago0x9aa8e45c0e22b06993c589b550eac6fd0b1095d0OUT StellaSwap: Distributor0 GLMR0.0145034365
0x349f1d15b46510ef6109fd8f3ad312fc626d0c821136b6bb56b0ce89b7dd28e6Deposit15928512022-08-06 5:10:1257 days 1 hr ago0x9aa8e45c0e22b06993c589b550eac6fd0b1095d0OUT 0xf3a5454496e26ac57da879bf3285fa85debf03880 GLMR0.041340138
0x27c9862f2bb7bb58f285bb5492da08d3bb60d7deff893fc83176ef720671c335Enter15928442022-08-06 5:08:4257 days 1 hr ago0x9aa8e45c0e22b06993c589b550eac6fd0b1095d0OUT StellaSwap: xStella Token0 GLMR0.0040704545
0x429fc18c8918b97b16c6f647963536e50eddf31306c9be6f19063778b0a75253Deposit15928272022-08-06 5:05:1857 days 2 hrs ago0x9aa8e45c0e22b06993c589b550eac6fd0b1095d0OUT 0xf3a5454496e26ac57da879bf3285fa85debf03880 GLMR0.0395442985
0x0c7e7accb484ef06af094841a31362a359864e4368ee8073e9dc70fb38bdf6daDeposit15928232022-08-06 5:04:2457 days 2 hrs ago0x9aa8e45c0e22b06993c589b550eac6fd0b1095d0OUT StellaSwap: Distributor0 GLMR0.0165232865
0x50593702db156cb2ad4d3ccd458019da6dd0ecc4e053561464306d7717761f8bEnter15477932022-07-30 14:48:1863 days 16 hrs ago0x9aa8e45c0e22b06993c589b550eac6fd0b1095d0OUT StellaSwap: xStella Token0 GLMR0.0056863345
0x0d9ae62e01473d356728a7bc355e691d0be1cb3bb8af0c9916bcd1f0a1e61efcDeposit15477862022-07-30 14:46:4863 days 16 hrs ago0x9aa8e45c0e22b06993c589b550eac6fd0b1095d0OUT 0xf3a5454496e26ac57da879bf3285fa85debf03880 GLMR0.0149918545
0x9a22b9e7f8ca6ad7096ff537b31bc2b66f7ccbb1e098afec36c67a2a41f5a69bDeposit15477822022-07-30 14:46:0063 days 16 hrs ago0x9aa8e45c0e22b06993c589b550eac6fd0b1095d0OUT 0xf3a5454496e26ac57da879bf3285fa85debf03880 GLMR0.042445676
0xf342a90311174e0d1c7f1d49e0f6f1b65258b679d38b6791fbac07e6ad06036fEnter15477342022-07-30 14:35:3063 days 16 hrs ago0x9aa8e45c0e22b06993c589b550eac6fd0b1095d0OUT StellaSwap: xStella Token0 GLMR0.0056863345
[ Download CSV Export 
Latest 5 internal transactions
Parent Txn Hash Block From To Value
0x7d13f3876e2c080be69dca770d53922d995f66b495ead841c523678e67c24d9c16311462022-08-11 17:10:1251 days 13 hrs ago StellaSwap: Router v2.10x9aa8e45c0e22b06993c589b550eac6fd0b1095d059.007248538910085436 GLMR
0x4e2a49223e144c4f04bd93e3734d45fed1d1f7a7b608d1d2fa46434f45adf1a016310962022-08-11 17:00:0051 days 14 hrs ago StellaSwap: Router v2.10x9aa8e45c0e22b06993c589b550eac6fd0b1095d057.855715694416067653 GLMR
0x429fc18c8918b97b16c6f647963536e50eddf31306c9be6f19063778b0a7525315928272022-08-06 5:05:1857 days 2 hrs ago 0x896135ff51debe8083a2e03f9d44b1d3c77a03240x9aa8e45c0e22b06993c589b550eac6fd0b1095d00.017865195056928496 GLMR
0x9a22b9e7f8ca6ad7096ff537b31bc2b66f7ccbb1e098afec36c67a2a41f5a69b15477822022-07-30 14:46:0063 days 16 hrs ago 0x896135ff51debe8083a2e03f9d44b1d3c77a03240x9aa8e45c0e22b06993c589b550eac6fd0b1095d00.023375108635446349 GLMR
0xc1e76a9077155d452417d3d5667c06d988d39ac8105364e6dd56aa8552f6b1e314994802022-07-23 12:50:5470 days 18 hrs ago 0x896135ff51debe8083a2e03f9d44b1d3c77a03240x9aa8e45c0e22b06993c589b550eac6fd0b1095d00.000309209145655213 GLMR
[ Download CSV Export 
Loading

Contract Name:
0

Compiler Version
0

Optimization Enabled:
0

Other Settings:
-NA-
Block Transaction Gas Used Reward
Age Block Fee Address BC Fee Address Voting Power Jailed Incoming
Block Uncle Number Difficulty Gas Used Reward
Loading
Make sure to use the "Vote Down" button for any spammy posts, and the "Vote Up" for interesting conversations.